sensor_id;sensor_type;location;lat;lon;timestamp;P1;durP1;ratioP1;P2;durP2;ratioP2
55989;SDS011;41875;55.806;38.082;2022-11-14T00:01:27;1.85;;;0.45;;
55989;SDS011;41875;55.806;38.082;2022-11-14T00:04:14;0.43;;;0.38;;
55989;SDS011;41875;55.806;38.082;2022-11-14T00:07:01;0.47;;;0.40;;
55989;SDS011;41875;55.806;38.082;2022-11-14T00:09:50;0.47;;;0.40;;
55989;SDS011;41875;55.806;38.082;2022-11-14T00:12:38;0.73;;;0.50;;
55989;SDS011;41875;55.806;38.082;2022-11-14T00:15:25;0.32;;;0.32;;
55989;SDS011;41875;55.806;38.082;2022-11-14T00:18:12;1.83;;;0.50;;
55989;SDS011;41875;55.806;38.082;2022-11-14T00:21:00;0.30;;;0.30;;
55989;SDS011;41875;55.806;38.082;2022-11-14T00:23:47;1.98;;;0.50;;
55989;SDS011;41875;55.806;38.082;2022-11-14T00:26:36;0.40;;;0.40;;
55989;SDS011;41875;55.806;38.082;2022-11-14T00:29:23;1.02;;;0.50;;
55989;SDS011;41875;55.806;38.082;2022-11-14T00:32:09;0.95;;;0.70;;
55989;SDS011;41875;55.806;38.082;2022-11-14T00:34:57;0.40;;;0.40;;
55989;SDS011;41875;55.806;38.082;2022-11-14T00:37:44;0.75;;;0.57;;
55989;SDS011;41875;55.806;38.082;2022-11-14T00:40:31;0.40;;;0.40;;
55989;SDS011;41875;55.806;38.082;2022-11-14T00:43:19;3.00;;;0.80;;
55989;SDS011;41875;55.806;38.082;2022-11-14T00:46:07;1.95;;;0.60;;
55989;SDS011;41875;55.806;38.082;2022-11-14T00:48:54;0.40;;;0.40;;
55989;SDS011;41875;55.806;38.082;2022-11-14T00:51:41;0.98;;;0.50;;
55989;SDS011;41875;55.806;38.082;2022-11-14T00:54:29;0.28;;;0.28;;
55989;SDS011;41875;55.806;38.082;2022-11-14T00:57:16;0.43;;;0.40;;
55989;SDS011;41875;55.806;38.082;2022-11-14T01:00:05;0.40;;;0.40;;
55989;SDS011;41875;55.806;38.082;2022-11-14T01:02:53;0.30;;;0.30;;
55989;SDS011;41875;55.806;38.082;2022-11-14T01:05:42;0.95;;;0.47;;
55989;SDS011;41875;55.806;38.082;2022-11-14T01:08:31;1.90;;;0.70;;
55989;SDS011;41875;55.806;38.082;2022-11-14T01:11:19;1.23;;;0.60;;
55989;SDS011;41875;55.806;38.082;2022-11-14T01:14:07;1.38;;;0.57;;
55989;SDS011;41875;55.806;38.082;2022-11-14T01:16:56;1.80;;;0.65;;
55989;SDS011;41875;55.806;38.082;2022-11-14T01:19:43;1.35;;;0.60;;
55989;SDS011;41875;55.806;38.082;2022-11-14T01:22:31;2.38;;;1.10;;
55989;SDS011;41875;55.806;38.082;2022-11-14T01:25:21;1.75;;;0.98;;
55989;SDS011;41875;55.806;38.082;2022-11-14T01:28:09;3.03;;;1.42;;
55989;SDS011;41875;55.806;38.082;2022-11-14T01:31:06;1.30;;;1.00;;
55989;SDS011;41875;55.806;38.082;2022-11-14T01:33:55;4.25;;;1.05;;
55989;SDS011;41875;55.806;38.082;2022-11-14T01:36:42;4.15;;;1.55;;
55989;SDS011;41875;55.806;38.082;2022-11-14T01:39:29;4.30;;;1.33;;
55989;SDS011;41875;55.806;38.082;2022-11-14T01:42:17;3.42;;;1.30;;
55989;SDS011;41875;55.806;38.082;2022-11-14T01:48:37;3.45;;;1.48;;
55989;SDS011;41875;55.806;38.082;2022-11-14T01:51:29;2.85;;;1.27;;
55989;SDS011;41875;55.806;38.082;2022-11-14T01:54:19;3.97;;;1.40;;
55989;SDS011;41875;55.806;38.082;2022-11-14T01:57:09;3.03;;;1.60;;
55989;SDS011;41875;55.806;38.082;2022-11-14T02:00:00;1.70;;;0.90;;
55989;SDS011;41875;55.806;38.082;2022-11-14T02:02:51;4.65;;;1.42;;
55989;SDS011;41875;55.806;38.082;2022-11-14T02:05:39;3.85;;;1.23;;
55989;SDS011;41875;55.806;38.082;2022-11-14T02:08:29;1.95;;;1.00;;
55989;SDS011;41875;55.806;38.082;2022-11-14T02:11:17;3.03;;;1.23;;
55989;SDS011;41875;55.806;38.082;2022-11-14T02:14:04;2.90;;;1.30;;
55989;SDS011;41875;55.806;38.082;2022-11-14T02:17:12;1.63;;;1.00;;
55989;SDS011;41875;55.806;38.082;2022-11-14T02:20:19;2.28;;;0.90;;
55989;SDS011;41875;55.806;38.082;2022-11-14T02:23:08;1.55;;;0.70;;
55989;SDS011;41875;55.806;38.082;2022-11-14T02:28:43;1.75;;;0.80;;
55989;SDS011;41875;55.806;38.082;2022-11-14T02:31:31;3.65;;;0.90;;
55989;SDS011;41875;55.806;38.082;2022-11-14T02:34:18;3.53;;;0.65;;
55989;SDS011;41875;55.806;38.082;2022-11-14T02:37:07;0.57;;;0.47;;
55989;SDS011;41875;55.806;38.082;2022-11-14T02:39:54;3.38;;;1.13;;
55989;SDS011;41875;55.806;38.082;2022-11-14T02:42:41;1.08;;;0.80;;
55989;SDS011;41875;55.806;38.082;2022-11-14T02:45:28;1.67;;;0.73;;
55989;SDS011;41875;55.806;38.082;2022-11-14T02:48:15;4.05;;;0.85;;
55989;SDS011;41875;55.806;38.082;2022-11-14T02:51:03;0.82;;;0.45;;
55989;SDS011;41875;55.806;38.082;2022-11-14T02:53:51;1.60;;;0.80;;
55989;SDS011;41875;55.806;38.082;2022-11-14T02:56:42;2.50;;;0.90;;
55989;SDS011;41875;55.806;38.082;2022-11-14T02:59:29;4.03;;;0.98;;
55989;SDS011;41875;55.806;38.082;2022-11-14T03:02:16;2.63;;;1.00;;
55989;SDS011;41875;55.806;38.082;2022-11-14T03:05:03;2.05;;;1.05;;
55989;SDS011;41875;55.806;38.082;2022-11-14T03:07:51;4.95;;;1.40;;
55989;SDS011;41875;55.806;38.082;2022-11-14T03:10:40;4.15;;;1.10;;
55989;SDS011;41875;55.806;38.082;2022-11-14T03:13:27;2.42;;;0.93;;
55989;SDS011;41875;55.806;38.082;2022-11-14T03:16:15;3.72;;;1.10;;
55989;SDS011;41875;55.806;38.082;2022-11-14T03:19:02;10.88;;;1.40;;
55989;SDS011;41875;55.806;38.082;2022-11-14T03:21:49;3.22;;;1.13;;
55989;SDS011;41875;55.806;38.082;2022-11-14T03:24:36;1.40;;;0.82;;
55989;SDS011;41875;55.806;38.082;2022-11-14T03:27:25;4.00;;;1.20;;
55989;SDS011;41875;55.806;38.082;2022-11-14T03:30:13;1.98;;;1.00;;
55989;SDS011;41875;55.806;38.082;2022-11-14T03:33:00;0.80;;;0.80;;
55989;SDS011;41875;55.806;38.082;2022-11-14T03:35:47;2.33;;;1.10;;
55989;SDS011;41875;55.806;38.082;2022-11-14T03:38:35;3.10;;;1.17;;
55989;SDS011;41875;55.806;38.082;2022-11-14T03:41:22;2.55;;;1.05;;
55989;SDS011;41875;55.806;38.082;2022-11-14T03:44:10;2.85;;;1.23;;
55989;SDS011;41875;55.806;38.082;2022-11-14T03:47:00;8.15;;;1.00;;
55989;SDS011;41875;55.806;38.082;2022-11-14T03:49:47;1.10;;;0.73;;
55989;SDS011;41875;55.806;38.082;2022-11-14T03:52:34;0.93;;;0.70;;
55989;SDS011;41875;55.806;38.082;2022-11-14T03:55:21;2.25;;;1.00;;
55989;SDS011;41875;55.806;38.082;2022-11-14T03:58:09;4.57;;;1.33;;
55989;SDS011;41875;55.806;38.082;2022-11-14T04:01:00;4.05;;;1.35;;
55989;SDS011;41875;55.806;38.082;2022-11-14T04:03:48;4.65;;;1.60;;
55989;SDS011;41875;55.806;38.082;2022-11-14T04:06:35;6.10;;;1.60;;
55989;SDS011;41875;55.806;38.082;2022-11-14T04:09:27;5.22;;;1.27;;
55989;SDS011;41875;55.806;38.082;2022-11-14T04:12:15;2.83;;;1.55;;
55989;SDS011;41875;55.806;38.082;2022-11-14T04:15:02;2.97;;;1.33;;
55989;SDS011;41875;55.806;38.082;2022-11-14T04:17:51;3.37;;;1.10;;
55989;SDS011;41875;55.806;38.082;2022-11-14T04:20:38;2.22;;;1.23;;
55989;SDS011;41875;55.806;38.082;2022-11-14T04:23:43;1.63;;;0.80;;
55989;SDS011;41875;55.806;38.082;2022-11-14T04:26:30;8.38;;;1.35;;
55989;SDS011;41875;55.806;38.082;2022-11-14T04:29:18;1.83;;;0.82;;
55989;SDS011;41875;55.806;38.082;2022-11-14T04:32:05;4.00;;;1.05;;
55989;SDS011;41875;55.806;38.082;2022-11-14T04:34:53;1.30;;;1.20;;
55989;SDS011;41875;55.806;38.082;2022-11-14T04:37:41;2.95;;;1.27;;
55989;SDS011;41875;55.806;38.082;2022-11-14T04:40:28;2.38;;;0.93;;
55989;SDS011;41875;55.806;38.082;2022-11-14T04:43:17;3.13;;;1.00;;
55989;SDS011;41875;55.806;38.082;2022-11-14T04:46:05;3.83;;;1.10;;
55989;SDS011;41875;55.806;38.082;2022-11-14T04:48:52;2.05;;;1.10;;
55989;SDS011;41875;55.806;38.082;2022-11-14T04:51:41;3.53;;;1.27;;
55989;SDS011;41875;55.806;38.082;2022-11-14T04:54:28;4.03;;;1.02;;
55989;SDS011;41875;55.806;38.082;2022-11-14T04:57:15;3.60;;;1.20;;
55989;SDS011;41875;55.806;38.082;2022-11-14T05:00:03;2.43;;;1.13;;
55989;SDS011;41875;55.806;38.082;2022-11-14T05:02:51;5.38;;;2.53;;
55989;SDS011;41875;55.806;38.082;2022-11-14T05:05:38;2.08;;;1.13;;
55989;SDS011;41875;55.806;38.082;2022-11-14T05:08:27;9.82;;;1.95;;
55989;SDS011;41875;55.806;38.082;2022-11-14T05:11:15;6.93;;;2.10;;
55989;SDS011;41875;55.806;38.082;2022-11-14T05:14:06;4.38;;;2.17;;
55989;SDS011;41875;55.806;38.082;2022-11-14T05:16:53;3.55;;;1.13;;
55989;SDS011;41875;55.806;38.082;2022-11-14T05:19:41;7.03;;;2.15;;
55989;SDS011;41875;55.806;38.082;2022-11-14T05:22:29;4.05;;;1.40;;
55989;SDS011;41875;55.806;38.082;2022-11-14T05:25:18;6.47;;;2.35;;
55989;SDS011;41875;55.806;38.082;2022-11-14T05:28:06;5.72;;;1.92;;
55989;SDS011;41875;55.806;38.082;2022-11-14T05:30:59;5.40;;;1.83;;
55989;SDS011;41875;55.806;38.082;2022-11-14T05:33:47;5.28;;;1.88;;
55989;SDS011;41875;55.806;38.082;2022-11-14T05:36:34;7.75;;;1.45;;
55989;SDS011;41875;55.806;38.082;2022-11-14T05:39:21;4.05;;;1.33;;
55989;SDS011;41875;55.806;38.082;2022-11-14T05:42:10;4.55;;;1.38;;
55989;SDS011;41875;55.806;38.082;2022-11-14T05:44:58;4.75;;;1.77;;
55989;SDS011;41875;55.806;38.082;2022-11-14T05:47:45;6.15;;;2.08;;
55989;SDS011;41875;55.806;38.082;2022-11-14T05:50:35;3.42;;;1.38;;
55989;SDS011;41875;55.806;38.082;2022-11-14T05:53:24;6.63;;;2.25;;
55989;SDS011;41875;55.806;38.082;2022-11-14T05:56:15;4.13;;;1.45;;
55989;SDS011;41875;55.806;38.082;2022-11-14T05:59:04;5.68;;;2.20;;
55989;SDS011;41875;55.806;38.082;2022-11-14T06:01:51;6.13;;;1.77;;
55989;SDS011;41875;55.806;38.082;2022-11-14T06:07:30;6.65;;;2.17;;
55989;SDS011;41875;55.806;38.082;2022-11-14T06:10:20;6.55;;;1.98;;
55989;SDS011;41875;55.806;38.082;2022-11-14T06:13:07;3.03;;;1.40;;
55989;SDS011;41875;55.806;38.082;2022-11-14T06:15:58;6.30;;;1.50;;
55989;SDS011;41875;55.806;38.082;2022-11-14T06:18:46;5.90;;;1.73;;
55989;SDS011;41875;55.806;38.082;2022-11-14T06:21:34;4.05;;;1.05;;
55989;SDS011;41875;55.806;38.082;2022-11-14T06:24:21;8.27;;;2.13;;
55989;SDS011;41875;55.806;38.082;2022-11-14T06:27:12;8.07;;;2.50;;
55989;SDS011;41875;55.806;38.082;2022-11-14T06:29:59;8.25;;;2.65;;
55989;SDS011;41875;55.806;38.082;2022-11-14T06:32:52;5.40;;;2.08;;
55989;SDS011;41875;55.806;38.082;2022-11-14T06:35:58;3.92;;;1.00;;
55989;SDS011;41875;55.806;38.082;2022-11-14T06:38:45;4.13;;;1.42;;
55989;SDS011;41875;55.806;38.082;2022-11-14T06:41:33;6.25;;;2.13;;
55989;SDS011;41875;55.806;38.082;2022-11-14T06:44:20;6.00;;;1.80;;
55989;SDS011;41875;55.806;38.082;2022-11-14T06:47:16;5.50;;;1.80;;
55989;SDS011;41875;55.806;38.082;2022-11-14T06:50:06;3.58;;;1.80;;
55989;SDS011;41875;55.806;38.082;2022-11-14T06:52:55;7.60;;;1.67;;
55989;SDS011;41875;55.806;38.082;2022-11-14T06:55:50;3.40;;;1.38;;
55989;SDS011;41875;55.806;38.082;2022-11-14T06:58:43;6.30;;;1.92;;
55989;SDS011;41875;55.806;38.082;2022-11-14T07:01:36;4.85;;;1.70;;
55989;SDS011;41875;55.806;38.082;2022-11-14T07:04:23;6.20;;;1.50;;
55989;SDS011;41875;55.806;38.082;2022-11-14T07:07:12;5.32;;;1.70;;
55989;SDS011;41875;55.806;38.082;2022-11-14T07:10:01;2.38;;;0.95;;
55989;SDS011;41875;55.806;38.082;2022-11-14T07:12:48;4.63;;;1.05;;
55989;SDS011;41875;55.806;38.082;2022-11-14T07:15:35;5.20;;;1.48;;
55989;SDS011;41875;55.806;38.082;2022-11-14T07:18:23;2.58;;;0.90;;
55989;SDS011;41875;55.806;38.082;2022-11-14T07:21:10;5.57;;;1.63;;
55989;SDS011;41875;55.806;38.082;2022-11-14T07:24:00;2.53;;;1.25;;
55989;SDS011;41875;55.806;38.082;2022-11-14T07:26:47;3.08;;;1.42;;
55989;SDS011;41875;55.806;38.082;2022-11-14T07:29:35;10.38;;;1.95;;
55989;SDS011;41875;55.806;38.082;2022-11-14T07:32:23;2.40;;;1.00;;
55989;SDS011;41875;55.806;38.082;2022-11-14T07:35:13;8.18;;;1.55;;
55989;SDS011;41875;55.806;38.082;2022-11-14T07:38:01;7.95;;;2.22;;
55989;SDS011;41875;55.806;38.082;2022-11-14T07:40:54;9.52;;;2.28;;
55989;SDS011;41875;55.806;38.082;2022-11-14T07:43:44;3.75;;;1.38;;
55989;SDS011;41875;55.806;38.082;2022-11-14T07:46:32;9.38;;;1.85;;
55989;SDS011;41875;55.806;38.082;2022-11-14T07:49:20;5.80;;;1.73;;
55989;SDS011;41875;55.806;38.082;2022-11-14T07:52:08;4.80;;;1.30;;
55989;SDS011;41875;55.806;38.082;2022-11-14T07:54:58;2.95;;;1.10;;
55989;SDS011;41875;55.806;38.082;2022-11-14T07:57:47;4.53;;;1.20;;
55989;SDS011;41875;55.806;38.082;2022-11-14T08:00:38;2.60;;;1.30;;
55989;SDS011;41875;55.806;38.082;2022-11-14T08:03:24;4.63;;;1.30;;
55989;SDS011;41875;55.806;38.082;2022-11-14T08:06:12;5.10;;;1.42;;
55989;SDS011;41875;55.806;38.082;2022-11-14T08:09:03;1.42;;;0.90;;
55989;SDS011;41875;55.806;38.082;2022-11-14T08:11:50;4.60;;;1.50;;
55989;SDS011;41875;55.806;38.082;2022-11-14T08:14:39;2.33;;;0.90;;
55989;SDS011;41875;55.806;38.082;2022-11-14T08:17:29;4.60;;;1.00;;
55989;SDS011;41875;55.806;38.082;2022-11-14T08:20:37;2.47;;;0.90;;
55989;SDS011;41875;55.806;38.082;2022-11-14T08:23:24;5.25;;;0.98;;
55989;SDS011;41875;55.806;38.082;2022-11-14T08:26:11;4.70;;;1.05;;
55989;SDS011;41875;55.806;38.082;2022-11-14T08:28:58;2.45;;;1.20;;
55989;SDS011;41875;55.806;38.082;2022-11-14T08:31:47;1.20;;;0.57;;
55989;SDS011;41875;55.806;38.082;2022-11-14T08:34:44;2.15;;;0.70;;
55989;SDS011;41875;55.806;38.082;2022-11-14T08:37:31;5.28;;;1.23;;
55989;SDS011;41875;55.806;38.082;2022-11-14T08:40:18;1.83;;;0.75;;
55989;SDS011;41875;55.806;38.082;2022-11-14T08:43:06;2.55;;;0.85;;
55989;SDS011;41875;55.806;38.082;2022-11-14T08:46:26;3.17;;;1.02;;
55989;SDS011;41875;55.806;38.082;2022-11-14T08:49:40;2.35;;;0.90;;
55989;SDS011;41875;55.806;38.082;2022-11-14T08:52:28;4.95;;;1.15;;
55989;SDS011;41875;55.806;38.082;2022-11-14T08:55:30;4.60;;;0.77;;
55989;SDS011;41875;55.806;38.082;2022-11-14T08:59:12;3.97;;;0.93;;
55989;SDS011;41875;55.806;38.082;2022-11-14T09:02:00;4.43;;;1.42;;
55989;SDS011;41875;55.806;38.082;2022-11-14T09:04:48;5.60;;;1.40;;
55989;SDS011;41875;55.806;38.082;2022-11-14T09:07:36;4.18;;;0.95;;
55989;SDS011;41875;55.806;38.082;2022-11-14T09:10:23;4.93;;;1.20;;
55989;SDS011;41875;55.806;38.082;2022-11-14T09:13:11;10.45;;;1.70;;
55989;SDS011;41875;55.806;38.082;2022-11-14T09:15:58;6.03;;;1.10;;
55989;SDS011;41875;55.806;38.082;2022-11-14T09:18:46;5.70;;;0.88;;
55989;SDS011;41875;55.806;38.082;2022-11-14T09:21:34;5.63;;;1.20;;
55989;SDS011;41875;55.806;38.082;2022-11-14T09:24:22;2.65;;;0.85;;
55989;SDS011;41875;55.806;38.082;2022-11-14T09:27:09;3.70;;;0.90;;
55989;SDS011;41875;55.806;38.082;2022-11-14T09:29:57;5.93;;;1.70;;
55989;SDS011;41875;55.806;38.082;2022-11-14T09:32:44;5.93;;;1.00;;
55989;SDS011;41875;55.806;38.082;2022-11-14T09:35:34;2.08;;;1.17;;
55989;SDS011;41875;55.806;38.082;2022-11-14T09:38:24;6.55;;;1.27;;
55989;SDS011;41875;55.806;38.082;2022-11-14T09:41:16;5.55;;;1.42;;
55989;SDS011;41875;55.806;38.082;2022-11-14T09:44:20;1.55;;;0.90;;
55989;SDS011;41875;55.806;38.082;2022-11-14T09:47:37;3.40;;;1.10;;
55989;SDS011;41875;55.806;38.082;2022-11-14T09:50:30;3.28;;;1.20;;
55989;SDS011;41875;55.806;38.082;2022-11-14T09:53:21;4.43;;;1.50;;
55989;SDS011;41875;55.806;38.082;2022-11-14T09:56:19;2.00;;;0.80;;
55989;SDS011;41875;55.806;38.082;2022-11-14T09:59:09;4.47;;;1.02;;
55989;SDS011;41875;55.806;38.082;2022-11-14T10:01:58;5.65;;;1.60;;
55989;SDS011;41875;55.806;38.082;2022-11-14T10:05:00;3.85;;;1.25;;
55989;SDS011;41875;55.806;38.082;2022-11-14T10:08:03;4.75;;;1.20;;
55989;SDS011;41875;55.806;38.082;2022-11-14T10:11:00;3.95;;;1.30;;
55989;SDS011;41875;55.806;38.082;2022-11-14T10:14:05;2.50;;;1.02;;
55989;SDS011;41875;55.806;38.082;2022-11-14T10:17:08;5.18;;;0.95;;
55989;SDS011;41875;55.806;38.082;2022-11-14T10:20:08;7.80;;;1.50;;
55989;SDS011;41875;55.806;38.082;2022-11-14T10:23:05;3.63;;;1.13;;
55989;SDS011;41875;55.806;38.082;2022-11-14T10:26:09;3.03;;;1.23;;
55989;SDS011;41875;55.806;38.082;2022-11-14T10:29:21;4.35;;;0.90;;
55989;SDS011;41875;55.806;38.082;2022-11-14T10:32:27;2.75;;;1.05;;
55989;SDS011;41875;55.806;38.082;2022-11-14T10:35:27;1.17;;;0.73;;
55989;SDS011;41875;55.806;38.082;2022-11-14T10:38:21;2.42;;;0.85;;
55989;SDS011;41875;55.806;38.082;2022-11-14T10:41:14;3.55;;;1.30;;
55989;SDS011;41875;55.806;38.082;2022-11-14T10:44:24;4.07;;;0.82;;
55989;SDS011;41875;55.806;38.082;2022-11-14T10:47:15;2.65;;;0.73;;
55989;SDS011;41875;55.806;38.082;2022-11-14T10:50:11;6.32;;;1.20;;
55989;SDS011;41875;55.806;38.082;2022-11-14T10:53:04;4.87;;;1.43;;
55989;SDS011;41875;55.806;38.082;2022-11-14T10:55:59;2.90;;;1.33;;
55989;SDS011;41875;55.806;38.082;2022-11-14T10:58:51;2.47;;;1.05;;
55989;SDS011;41875;55.806;38.082;2022-11-14T11:01:38;3.22;;;1.10;;
55989;SDS011;41875;55.806;38.082;2022-11-14T11:04:28;4.88;;;1.65;;
55989;SDS011;41875;55.806;38.082;2022-11-14T11:07:17;8.50;;;2.15;;
55989;SDS011;41875;55.806;38.082;2022-11-14T11:10:37;4.63;;;1.10;;
55989;SDS011;41875;55.806;38.082;2022-11-14T11:13:52;2.55;;;1.27;;
55989;SDS011;41875;55.806;38.082;2022-11-14T11:16:40;5.32;;;1.80;;
55989;SDS011;41875;55.806;38.082;2022-11-14T11:19:27;3.80;;;1.35;;
55989;SDS011;41875;55.806;38.082;2022-11-14T11:22:29;1.85;;;0.90;;
55989;SDS011;41875;55.806;38.082;2022-11-14T11:25:22;5.68;;;1.33;;
55989;SDS011;41875;55.806;38.082;2022-11-14T11:28:11;2.67;;;1.15;;
55989;SDS011;41875;55.806;38.082;2022-11-14T11:31:02;4.03;;;1.30;;
55989;SDS011;41875;55.806;38.082;2022-11-14T11:33:51;1.50;;;0.80;;
55989;SDS011;41875;55.806;38.082;2022-11-14T11:36:38;5.68;;;1.10;;
55989;SDS011;41875;55.806;38.082;2022-11-14T11:39:30;5.07;;;1.40;;
55989;SDS011;41875;55.806;38.082;2022-11-14T11:42:22;8.75;;;1.80;;
55989;SDS011;41875;55.806;38.082;2022-11-14T11:45:33;1.70;;;1.00;;
55989;SDS011;41875;55.806;38.082;2022-11-14T11:48:22;3.65;;;1.35;;
55989;SDS011;41875;55.806;38.082;2022-11-14T11:51:18;4.13;;;1.73;;
55989;SDS011;41875;55.806;38.082;2022-11-14T11:54:12;2.47;;;1.13;;
55989;SDS011;41875;55.806;38.082;2022-11-14T11:57:02;5.85;;;1.20;;
55989;SDS011;41875;55.806;38.082;2022-11-14T12:00:06;3.13;;;0.90;;
55989;SDS011;41875;55.806;38.082;2022-11-14T12:03:00;5.28;;;1.50;;
55989;SDS011;41875;55.806;38.082;2022-11-14T12:05:53;2.85;;;1.23;;
55989;SDS011;41875;55.806;38.082;2022-11-14T12:09:00;3.55;;;1.55;;
55989;SDS011;41875;55.806;38.082;2022-11-14T12:11:53;3.92;;;1.20;;
55989;SDS011;41875;55.806;38.082;2022-11-14T12:14:47;6.10;;;1.63;;
55989;SDS011;41875;55.806;38.082;2022-11-14T12:17:49;2.50;;;1.00;;
55989;SDS011;41875;55.806;38.082;2022-11-14T12:27:35;3.80;;;1.75;;
55989;SDS011;41875;55.806;38.082;2022-11-14T12:30:34;5.35;;;1.42;;
55989;SDS011;41875;55.806;38.082;2022-11-14T12:33:25;6.88;;;1.20;;
55989;SDS011;41875;55.806;38.082;2022-11-14T12:36:21;2.78;;;1.08;;
55989;SDS011;41875;55.806;38.082;2022-11-14T12:39:21;2.40;;;1.23;;
55989;SDS011;41875;55.806;38.082;2022-11-14T12:42:10;3.03;;;1.10;;
55989;SDS011;41875;55.806;38.082;2022-11-14T12:45:15;1.35;;;0.73;;
55989;SDS011;41875;55.806;38.082;2022-11-14T12:48:40;3.42;;;1.27;;
55989;SDS011;41875;55.806;38.082;2022-11-14T12:51:48;3.30;;;1.33;;
55989;SDS011;41875;55.806;38.082;2022-11-14T12:54:43;4.00;;;1.25;;
55989;SDS011;41875;55.806;38.082;2022-11-14T12:57:33;7.40;;;1.13;;
55989;SDS011;41875;55.806;38.082;2022-11-14T13:00:37;2.33;;;1.10;;
55989;SDS011;41875;55.806;38.082;2022-11-14T13:03:47;1.80;;;0.77;;
55989;SDS011;41875;55.806;38.082;2022-11-14T13:06:53;2.83;;;1.00;;
55989;SDS011;41875;55.806;38.082;2022-11-14T13:09:57;2.08;;;0.55;;
55989;SDS011;41875;55.806;38.082;2022-11-14T13:13:16;1.95;;;1.02;;
55989;SDS011;41875;55.806;38.082;2022-11-14T13:16:21;3.63;;;1.20;;
55989;SDS011;41875;55.806;38.082;2022-11-14T13:19:27;6.75;;;2.10;;
55989;SDS011;41875;55.806;38.082;2022-11-14T13:22:38;5.60;;;2.33;;
55989;SDS011;41875;55.806;38.082;2022-11-14T13:25:26;2.60;;;1.17;;
55989;SDS011;41875;55.806;38.082;2022-11-14T13:31:45;5.85;;;1.42;;
55989;SDS011;41875;55.806;38.082;2022-11-14T13:34:36;6.03;;;1.40;;
55989;SDS011;41875;55.806;38.082;2022-11-14T13:40:43;2.33;;;1.08;;
55989;SDS011;41875;55.806;38.082;2022-11-14T13:43:42;4.03;;;1.20;;
55989;SDS011;41875;55.806;38.082;2022-11-14T13:46:43;9.05;;;1.83;;
55989;SDS011;41875;55.806;38.082;2022-11-14T13:49:52;7.22;;;1.63;;
55989;SDS011;41875;55.806;38.082;2022-11-14T13:52:45;4.97;;;1.33;;
55989;SDS011;41875;55.806;38.082;2022-11-14T13:55:42;6.32;;;1.58;;
55989;SDS011;41875;55.806;38.082;2022-11-14T13:58:52;6.47;;;1.40;;
55989;SDS011;41875;55.806;38.082;2022-11-14T14:02:10;3.28;;;1.48;;
55989;SDS011;41875;55.806;38.082;2022-11-14T14:05:14;3.38;;;1.17;;
55989;SDS011;41875;55.806;38.082;2022-11-14T14:11:19;7.63;;;1.35;;
55989;SDS011;41875;55.806;38.082;2022-11-14T14:14:35;7.60;;;1.75;;
55989;SDS011;41875;55.806;38.082;2022-11-14T14:17:32;4.15;;;2.10;;
55989;SDS011;41875;55.806;38.082;2022-11-14T14:20:32;2.55;;;1.10;;
55989;SDS011;41875;55.806;38.082;2022-11-14T14:23:29;4.00;;;1.17;;
55989;SDS011;41875;55.806;38.082;2022-11-14T14:26:29;8.25;;;1.98;;
55989;SDS011;41875;55.806;38.082;2022-11-14T14:29:28;3.53;;;1.20;;
55989;SDS011;41875;55.806;38.082;2022-11-14T14:32:24;4.17;;;1.33;;
55989;SDS011;41875;55.806;38.082;2022-11-14T14:35:21;3.53;;;1.50;;
55989;SDS011;41875;55.806;38.082;2022-11-14T14:38:10;4.53;;;1.55;;
55989;SDS011;41875;55.806;38.082;2022-11-14T14:40:59;2.92;;;1.13;;
55989;SDS011;41875;55.806;38.082;2022-11-14T14:43:52;10.57;;;2.05;;
55989;SDS011;41875;55.806;38.082;2022-11-14T14:46:41;6.65;;;1.63;;
55989;SDS011;41875;55.806;38.082;2022-11-14T14:49:29;4.97;;;1.75;;
55989;SDS011;41875;55.806;38.082;2022-11-14T14:52:20;4.25;;;1.58;;
55989;SDS011;41875;55.806;38.082;2022-11-14T14:55:19;5.80;;;1.48;;
55989;SDS011;41875;55.806;38.082;2022-11-14T14:58:12;5.97;;;1.73;;
55989;SDS011;41875;55.806;38.082;2022-11-14T15:01:09;7.32;;;1.73;;
55989;SDS011;41875;55.806;38.082;2022-11-14T15:04:00;4.38;;;1.80;;
55989;SDS011;41875;55.806;38.082;2022-11-14T15:06:49;2.85;;;1.40;;
55989;SDS011;41875;55.806;38.082;2022-11-14T15:09:38;3.35;;;1.77;;
55989;SDS011;41875;55.806;38.082;2022-11-14T15:12:37;4.63;;;1.98;;
55989;SDS011;41875;55.806;38.082;2022-11-14T15:15:27;5.30;;;1.80;;
55989;SDS011;41875;55.806;38.082;2022-11-14T15:18:19;3.38;;;1.25;;
55989;SDS011;41875;55.806;38.082;2022-11-14T15:21:13;1.67;;;1.08;;
55989;SDS011;41875;55.806;38.082;2022-11-14T15:24:02;5.28;;;1.42;;
55989;SDS011;41875;55.806;38.082;2022-11-14T15:27:02;2.67;;;1.25;;
55989;SDS011;41875;55.806;38.082;2022-11-14T15:29:51;3.72;;;0.90;;
55989;SDS011;41875;55.806;38.082;2022-11-14T15:32:46;2.83;;;1.23;;
55989;SDS011;41875;55.806;38.082;2022-11-14T15:35:37;2.28;;;1.08;;
55989;SDS011;41875;55.806;38.082;2022-11-14T15:38:25;1.88;;;1.00;;
55989;SDS011;41875;55.806;38.082;2022-11-14T15:41:29;4.07;;;0.85;;
55989;SDS011;41875;55.806;38.082;2022-11-14T15:44:29;1.88;;;0.85;;
55989;SDS011;41875;55.806;38.082;2022-11-14T15:47:19;1.88;;;0.75;;
55989;SDS011;41875;55.806;38.082;2022-11-14T15:50:21;1.65;;;0.80;;
55989;SDS011;41875;55.806;38.082;2022-11-14T15:53:20;3.17;;;1.13;;
55989;SDS011;41875;55.806;38.082;2022-11-14T15:56:10;1.73;;;0.90;;
55989;SDS011;41875;55.806;38.082;2022-11-14T15:58:58;5.30;;;1.45;;
55989;SDS011;41875;55.806;38.082;2022-11-14T16:01:46;1.98;;;0.75;;
55989;SDS011;41875;55.806;38.082;2022-11-14T16:04:36;2.67;;;0.85;;
55989;SDS011;41875;55.806;38.082;2022-11-14T16:07:31;0.95;;;0.85;;
55989;SDS011;41875;55.806;38.082;2022-11-14T16:10:23;6.68;;;0.90;;
55989;SDS011;41875;55.806;38.082;2022-11-14T16:13:14;4.30;;;0.88;;
55989;SDS011;41875;55.806;38.082;2022-11-14T16:16:02;3.10;;;0.90;;
55989;SDS011;41875;55.806;38.082;2022-11-14T16:18:49;3.87;;;1.33;;
55989;SDS011;41875;55.806;38.082;2022-11-14T16:21:37;5.57;;;1.20;;
55989;SDS011;41875;55.806;38.082;2022-11-14T16:24:25;2.13;;;0.75;;
55989;SDS011;41875;55.806;38.082;2022-11-14T16:27:19;1.65;;;1.02;;
55989;SDS011;41875;55.806;38.082;2022-11-14T16:30:09;1.83;;;0.98;;
55989;SDS011;41875;55.806;38.082;2022-11-14T16:32:57;3.22;;;0.75;;
55989;SDS011;41875;55.806;38.082;2022-11-14T16:35:45;3.63;;;0.80;;
55989;SDS011;41875;55.806;38.082;2022-11-14T16:38:35;1.67;;;0.70;;
55989;SDS011;41875;55.806;38.082;2022-11-14T16:41:22;2.33;;;0.82;;
55989;SDS011;41875;55.806;38.082;2022-11-14T16:44:13;1.42;;;0.57;;
55989;SDS011;41875;55.806;38.082;2022-11-14T16:47:02;3.53;;;0.80;;
55989;SDS011;41875;55.806;38.082;2022-11-14T16:49:49;5.28;;;1.20;;
55989;SDS011;41875;55.806;38.082;2022-11-14T16:52:36;3.70;;;0.90;;
55989;SDS011;41875;55.806;38.082;2022-11-14T16:55:24;2.83;;;0.88;;
55989;SDS011;41875;55.806;38.082;2022-11-14T16:58:11;2.83;;;1.10;;
55989;SDS011;41875;55.806;38.082;2022-11-14T17:00:59;4.13;;;1.20;;
55989;SDS011;41875;55.806;38.082;2022-11-14T17:03:46;1.42;;;0.80;;
55989;SDS011;41875;55.806;38.082;2022-11-14T17:06:34;2.92;;;1.10;;
55989;SDS011;41875;55.806;38.082;2022-11-14T17:09:21;2.85;;;1.10;;
55989;SDS011;41875;55.806;38.082;2022-11-14T17:12:10;0.90;;;0.88;;
55989;SDS011;41875;55.806;38.082;2022-11-14T17:14:57;4.30;;;1.30;;
55989;SDS011;41875;55.806;38.082;2022-11-14T17:17:46;2.90;;;1.05;;
55989;SDS011;41875;55.806;38.082;2022-11-14T17:20:35;5.40;;;1.65;;
55989;SDS011;41875;55.806;38.082;2022-11-14T17:23:25;1.73;;;0.80;;
55989;SDS011;41875;55.806;38.082;2022-11-14T17:26:12;3.30;;;1.08;;